createdAt,value
2022-09-24T00:01:28.593Z,3.20
2022-09-24T00:03:59.380Z,3.30
2022-09-24T00:06:27.597Z,3.22
2022-09-24T00:08:55.682Z,2.90
2022-09-24T00:11:24.142Z,3.28
2022-09-24T00:13:52.981Z,3.65
2022-09-24T00:16:21.758Z,3.30
2022-09-24T00:18:48.433Z,3.42
2022-09-24T00:21:18.160Z,3.38
2022-09-24T00:23:48.344Z,3.28
2022-09-24T00:26:34.336Z,3.20
2022-09-24T00:29:01.345Z,3.10
2022-09-24T00:31:28.484Z,3.03
2022-09-24T00:33:55.213Z,3.15
2022-09-24T00:36:23.058Z,3.58
2022-09-24T00:38:54.570Z,3.63
2022-09-24T00:41:23.456Z,3.22
2022-09-24T00:43:51.215Z,3.30
2022-09-24T00:46:21.733Z,3.40
2022-09-24T00:48:50.230Z,3.30
2022-09-24T00:51:20.941Z,3.10
2022-09-24T00:53:51.033Z,3.30
2022-09-24T00:56:21.746Z,3.60
2022-09-24T00:58:55.003Z,3.47
2022-09-24T01:01:23.948Z,3.30
2022-09-24T01:03:55.484Z,3.67
2022-09-24T01:06:22.274Z,3.72
2022-09-24T01:08:49.026Z,3.67
2022-09-24T01:11:28.725Z,3.65
2022-09-24T01:14:23.420Z,3.47
2022-09-24T01:16:57.616Z,3.63
2022-09-24T01:22:43.071Z,3.40
2022-09-24T01:25:28.241Z,3.60
2022-09-24T01:28:25.449Z,3.65
2022-09-24T01:31:00.855Z,3.20
2022-09-24T01:33:30.841Z,3.33
2022-09-24T01:36:03.750Z,3.25
2022-09-24T01:38:37.270Z,3.22
2022-09-24T01:41:06.948Z,3.30
2022-09-24T01:43:34.454Z,3.28
2022-09-24T01:46:05.968Z,3.10
2022-09-24T01:48:38.057Z,3.05
2022-09-24T01:51:16.722Z,3.08
2022-09-24T01:54:18.032Z,3.00
2022-09-24T01:56:57.010Z,3.42
2022-09-24T01:59:40.519Z,3.42
2022-09-24T02:02:14.571Z,3.10
2022-09-24T02:04:51.508Z,3.67
2022-09-24T02:07:26.399Z,2.85
2022-09-24T02:09:53.082Z,3.00
2022-09-24T02:12:37.837Z,3.17
2022-09-24T02:15:17.438Z,3.15
2022-09-24T02:17:47.260Z,3.05
2022-09-24T02:20:16.453Z,2.80
2022-09-24T02:22:45.801Z,3.35
2022-09-24T02:25:18.852Z,3.10
2022-09-24T02:27:45.660Z,3.05
2022-09-24T02:30:13.098Z,3.08
2022-09-24T02:32:41.472Z,3.08
2022-09-24T02:35:10.241Z,3.10
2022-09-24T02:37:39.965Z,3.65
2022-09-24T02:40:09.258Z,3.45
2022-09-24T02:42:37.081Z,3.17
2022-09-24T02:45:05.225Z,3.08
2022-09-24T02:47:31.895Z,3.13
2022-09-24T02:49:58.976Z,3.13
2022-09-24T02:52:25.629Z,3.20
2022-09-24T02:54:52.317Z,2.80
2022-09-24T02:57:19.465Z,2.92
2022-09-24T02:59:46.932Z,2.90
2022-09-24T03:02:15.017Z,2.90
2022-09-24T03:04:41.786Z,2.92
2022-09-24T03:07:10.173Z,3.00
2022-09-24T03:09:36.850Z,2.80
2022-09-24T03:12:03.923Z,2.72
2022-09-24T03:14:30.739Z,3.08
2022-09-24T03:16:57.312Z,3.10
2022-09-24T03:19:23.909Z,3.30
2022-09-24T03:21:50.525Z,3.22
2022-09-24T03:24:17.090Z,3.53
2022-09-24T03:26:43.698Z,3.33
2022-09-24T03:29:10.502Z,3.45
2022-09-24T03:31:37.158Z,3.40
2022-09-24T03:34:03.856Z,3.05
2022-09-24T03:36:30.497Z,3.38
2022-09-24T03:38:57.941Z,3.15
2022-09-24T03:41:28.273Z,3.28
2022-09-24T03:43:55.476Z,3.38
2022-09-24T03:46:24.252Z,3.08
2022-09-24T03:48:50.990Z,3.50
2022-09-24T03:51:19.909Z,3.30
2022-09-24T03:53:47.506Z,3.80
2022-09-24T03:56:14.929Z,3.53
2022-09-24T03:58:41.924Z,3.08
2022-09-24T04:01:10.542Z,3.65
2022-09-24T04:03:37.598Z,3.60
2022-09-24T04:06:05.361Z,3.83
2022-09-24T04:08:32.423Z,3.70
2022-09-24T04:11:02.800Z,3.80
2022-09-24T04:13:32.283Z,3.28
2022-09-24T04:16:03.744Z,3.30
2022-09-24T04:18:30.518Z,3.70
2022-09-24T04:21:00.602Z,3.40
2022-09-24T04:23:27.776Z,3.90
2022-09-24T04:25:54.356Z,3.92
2022-09-24T04:28:21.046Z,3.45
2022-09-24T04:30:47.758Z,3.42
2022-09-24T04:33:14.510Z,3.88
2022-09-24T04:35:41.095Z,4.18
2022-09-24T04:38:09.140Z,3.53
2022-09-24T04:40:35.865Z,3.95
2022-09-24T04:43:03.300Z,3.88
2022-09-24T04:45:29.888Z,4.07
2022-09-24T04:47:57.787Z,4.35
2022-09-24T04:50:30.579Z,4.10
2022-09-24T04:52:57.426Z,3.70
2022-09-24T04:55:26.027Z,4.47
2022-09-24T04:58:01.963Z,4.40
2022-09-24T05:00:28.521Z,4.38
2022-09-24T05:02:59.711Z,4.35
2022-09-24T05:05:30.300Z,4.05
2022-09-24T05:08:01.173Z,4.60
2022-09-24T05:10:29.626Z,4.30
2022-09-24T05:12:56.265Z,4.30
2022-09-24T05:15:23.365Z,4.00
2022-09-24T05:17:50.074Z,3.97
2022-09-24T05:20:17.045Z,4.25
2022-09-24T05:22:49.459Z,4.40
2022-09-24T05:25:17.877Z,4.25
2022-09-24T05:27:45.731Z,4.32
2022-09-24T05:30:13.166Z,4.55
2022-09-24T05:32:40.238Z,4.47
2022-09-24T05:35:10.174Z,5.03
2022-09-24T05:37:38.241Z,4.57
2022-09-24T05:40:25.500Z,4.63
2022-09-24T05:42:52.415Z,5.13
2022-09-24T05:45:19.054Z,5.13
2022-09-24T05:47:46.541Z,5.78
2022-09-24T05:50:13.992Z,5.07
2022-09-24T05:52:41.285Z,5.00
2022-09-24T05:55:09.276Z,4.70
2022-09-24T05:57:36.396Z,4.78
2022-09-24T06:00:04.505Z,4.90
2022-09-24T06:02:31.157Z,8.93
2022-09-24T06:04:57.814Z,8.80
2022-09-24T06:07:24.410Z,5.75
2022-09-24T06:09:51.196Z,5.20
2022-09-24T06:12:17.964Z,5.25
2022-09-24T06:14:44.547Z,5.13
2022-09-24T06:17:11.341Z,5.07
2022-09-24T06:19:39.251Z,5.20
2022-09-24T06:22:06.064Z,5.65
2022-09-24T06:24:32.649Z,5.60
2022-09-24T06:26:59.337Z,5.30
2022-09-24T06:29:25.937Z,5.40
2022-09-24T06:31:53.600Z,5.63
2022-09-24T06:34:20.249Z,5.90
2022-09-24T06:36:46.963Z,5.65
2022-09-24T06:39:13.614Z,5.63
2022-09-24T06:41:40.245Z,6.03
2022-09-24T06:44:06.806Z,6.25
2022-09-24T06:46:33.501Z,6.05
2022-09-24T06:49:00.166Z,8.55
2022-09-24T06:51:26.754Z,8.50
2022-09-24T06:53:53.586Z,8.43
2022-09-24T06:56:20.297Z,7.05
2022-09-24T06:58:46.963Z,7.32
2022-09-24T07:01:13.624Z,6.10
2022-09-24T07:03:40.739Z,5.18
2022-09-24T07:06:07.479Z,5.55
2022-09-24T07:08:34.633Z,4.85
2022-09-24T07:11:02.146Z,4.93
2022-09-24T07:13:28.824Z,5.00
2022-09-24T07:15:55.662Z,4.65
2022-09-24T07:18:23.028Z,5.18
2022-09-24T07:20:54.180Z,4.40
2022-09-24T07:23:21.615Z,5.00
2022-09-24T07:25:49.039Z,5.47
2022-09-24T07:28:15.854Z,5.07
2022-09-24T07:30:42.956Z,5.47
2022-09-24T07:33:09.690Z,4.90
2022-09-24T07:35:40.063Z,7.32
2022-09-24T07:38:12.277Z,10.23
2022-09-24T07:40:39.197Z,9.20
2022-09-24T07:43:13.792Z,7.93
2022-09-24T07:45:42.023Z,8.05
2022-09-24T07:48:10.741Z,6.05
2022-09-24T07:50:41.841Z,4.95
2022-09-24T07:53:12.946Z,4.80
2022-09-24T07:55:47.988Z,4.80
2022-09-24T07:58:14.927Z,4.57
2022-09-24T08:00:41.783Z,4.80
2022-09-24T08:03:08.453Z,4.32
2022-09-24T08:05:35.199Z,4.50
2022-09-24T08:08:02.208Z,4.30
2022-09-24T08:10:28.993Z,4.05
2022-09-24T08:12:58.866Z,4.65
2022-09-24T08:15:25.875Z,4.53
2022-09-24T08:17:53.037Z,4.97
2022-09-24T08:20:19.728Z,5.43
2022-09-24T08:22:46.285Z,4.65
2022-09-24T08:25:12.880Z,4.28
2022-09-24T08:27:39.664Z,4.40
2022-09-24T08:30:07.432Z,4.00
2022-09-24T08:32:34.277Z,4.38
2022-09-24T08:35:00.936Z,4.80
2022-09-24T08:37:28.869Z,3.90
2022-09-24T08:39:55.836Z,4.00
2022-09-24T08:42:50.280Z,4.22
2022-09-24T08:45:36.039Z,4.32
2022-09-24T08:48:20.867Z,4.07
2022-09-24T08:51:02.115Z,4.30
2022-09-24T08:53:51.004Z,4.03
2022-09-24T08:56:24.926Z,3.80
2022-09-24T08:59:03.241Z,4.60
2022-09-24T09:01:58.868Z,3.85
2022-09-24T09:04:28.675Z,3.72
2022-09-24T09:07:17.222Z,4.72
2022-09-24T09:10:07.850Z,5.03
2022-09-24T09:12:40.673Z,4.32
2022-09-24T09:15:13.637Z,4.15
2022-09-24T09:18:06.603Z,4.63
2022-09-24T09:20:44.852Z,4.60
2022-09-24T09:23:27.615Z,3.90
2022-09-24T09:25:59.893Z,3.83
2022-09-24T09:28:27.669Z,3.65
2022-09-24T09:30:59.055Z,4.65
2022-09-24T09:33:50.674Z,3.40
2022-09-24T09:36:29.172Z,4.13
2022-09-24T09:39:32.616Z,3.70
2022-09-24T09:42:08.022Z,3.80
2022-09-24T09:44:41.627Z,4.05
2022-09-24T09:47:35.958Z,3.83
2022-09-24T09:50:12.549Z,3.35
2022-09-24T09:52:39.931Z,3.17
2022-09-24T09:55:07.050Z,4.07
2022-09-24T09:57:35.976Z,3.85
2022-09-24T10:00:05.074Z,25.50
2022-09-24T10:02:35.280Z,5.05
2022-09-24T10:05:04.874Z,5.25
2022-09-24T10:07:32.096Z,4.38
2022-09-24T10:10:13.134Z,4.55
2022-09-24T10:12:39.794Z,3.78
2022-09-24T10:15:19.552Z,3.83
2022-09-24T10:17:49.517Z,4.20
2022-09-24T10:20:23.530Z,3.83
2022-09-24T10:23:17.125Z,4.13
2022-09-24T10:25:58.457Z,3.63
2022-09-24T10:28:44.344Z,3.55
2022-09-24T10:31:19.099Z,3.50
2022-09-24T10:33:48.757Z,3.53
2022-09-24T10:36:19.014Z,3.55
2022-09-24T10:38:45.776Z,4.00
2022-09-24T10:41:15.744Z,3.72
2022-09-24T10:43:51.402Z,3.55
2022-09-24T10:46:45.842Z,3.72
2022-09-24T10:49:21.802Z,3.63
2022-09-24T10:52:32.367Z,3.30
2022-09-24T10:55:17.389Z,3.45
2022-09-24T10:58:25.793Z,3.47
2022-09-24T11:01:03.300Z,4.40
2022-09-24T11:03:53.156Z,3.80
2022-09-24T11:06:26.555Z,3.55
2022-09-24T11:09:15.025Z,14.80
2022-09-24T11:11:50.341Z,7.63
2022-09-24T11:14:40.682Z,3.45
2022-09-24T11:17:30.647Z,3.83
2022-09-24T11:20:15.895Z,3.67
2022-09-24T11:22:58.111Z,3.45
2022-09-24T11:25:42.255Z,3.80
2022-09-24T11:28:21.164Z,3.95
2022-09-24T11:31:11.982Z,3.80
2022-09-24T11:34:01.969Z,3.83
2022-09-24T11:36:41.178Z,4.05
2022-09-24T11:39:28.162Z,3.85
2022-09-24T11:42:18.278Z,3.72
2022-09-24T11:45:05.632Z,3.72
2022-09-24T11:47:47.553Z,3.80
2022-09-24T11:50:30.211Z,4.07
2022-09-24T11:53:06.579Z,3.47
2022-09-24T11:55:49.340Z,4.30
2022-09-24T11:58:22.918Z,4.28
2022-09-24T12:01:01.505Z,4.50
2022-09-24T12:03:45.578Z,4.03
2022-09-24T12:06:17.463Z,3.85
2022-09-24T12:08:53.460Z,3.85
2022-09-24T12:11:31.542Z,4.32
2022-09-24T12:14:22.832Z,3.97
2022-09-24T12:17:01.126Z,4.47
2022-09-24T12:19:48.414Z,4.35
2022-09-24T12:22:18.957Z,4.43
2022-09-24T12:24:52.420Z,4.00
2022-09-24T12:27:38.797Z,4.10
2022-09-24T12:30:43.130Z,4.00
2022-09-24T12:33:32.273Z,3.90
2022-09-24T12:36:05.517Z,4.10
2022-09-24T12:39:16.375Z,4.40
2022-09-24T12:41:46.646Z,3.45
2022-09-24T12:44:22.147Z,19.45
2022-09-24T12:46:57.904Z,7.20
2022-09-24T12:49:24.591Z,4.13
2022-09-24T12:52:14.858Z,4.35
2022-09-24T12:54:43.097Z,4.55
2022-09-24T12:57:21.336Z,4.35
2022-09-24T13:00:02.437Z,4.18
2022-09-24T13:02:33.594Z,4.05
2022-09-24T13:05:03.054Z,4.68
2022-09-24T13:07:35.800Z,4.28
2022-09-24T13:10:17.373Z,4.13
2022-09-24T13:12:45.238Z,4.47
2022-09-24T13:15:28.137Z,3.78
2022-09-24T13:18:19.782Z,4.25
2022-09-24T13:21:01.682Z,4.43
2022-09-24T13:23:29.562Z,4.38
2022-09-24T13:26:07.216Z,4.28
2022-09-24T13:28:50.206Z,4.32
2022-09-24T13:31:27.810Z,4.53
2022-09-24T13:34:09.748Z,4.68
2022-09-24T13:36:48.057Z,4.72
2022-09-24T13:39:48.717Z,4.63
2022-09-24T13:42:20.738Z,4.18
2022-09-24T13:45:00.382Z,4.30
2022-09-24T13:47:57.335Z,3.97
2022-09-24T13:50:40.251Z,3.88
2022-09-24T13:53:22.526Z,4.00
2022-09-24T13:55:59.410Z,8.00
2022-09-24T13:58:41.591Z,8.63
2022-09-24T14:01:19.791Z,14.75
2022-09-24T14:03:56.291Z,7.93
2022-09-24T14:06:45.488Z,6.18
2022-09-24T14:09:16.952Z,5.45
2022-09-24T14:11:52.221Z,5.43
2022-09-24T14:14:21.172Z,5.45
2022-09-24T14:16:47.802Z,5.03
2022-09-24T14:19:16.352Z,5.38
2022-09-24T14:21:57.161Z,5.15
2022-09-24T14:24:26.156Z,5.60
2022-09-24T14:26:58.378Z,5.50
2022-09-24T14:29:47.651Z,6.20
2022-09-24T14:32:33.085Z,16.25
2022-09-24T14:35:03.720Z,20.48
2022-09-24T14:37:34.042Z,9.48
2022-09-24T14:40:05.146Z,5.65
2022-09-24T14:42:41.093Z,5.80
2022-09-24T14:45:10.221Z,5.20
2022-09-24T14:47:37.480Z,5.47
2022-09-24T14:50:06.064Z,5.07
2022-09-24T14:52:39.062Z,5.30
2022-09-24T14:55:15.900Z,5.13
2022-09-24T14:57:47.572Z,5.25
2022-09-24T15:00:23.273Z,5.15
2022-09-24T15:02:59.424Z,5.60
2022-09-24T15:05:28.563Z,5.18
2022-09-24T15:08:28.033Z,5.35
2022-09-24T15:11:00.818Z,5.15
2022-09-24T15:13:32.490Z,8.05
2022-09-24T15:16:17.465Z,8.15
2022-09-24T15:18:44.331Z,6.25
2022-09-24T15:21:12.811Z,6.35
2022-09-24T15:23:39.421Z,14.00
2022-09-24T15:26:06.178Z,29.50
2022-09-24T15:28:32.788Z,30.60
2022-09-24T15:30:59.476Z,78.40
2022-09-24T15:33:26.190Z,45.38
2022-09-24T15:35:52.889Z,68.05
2022-09-24T15:38:20.038Z,84.60
2022-09-24T15:40:46.963Z,71.38
2022-09-24T15:43:23.120Z,53.08
2022-09-24T15:45:50.598Z,39.22
2022-09-24T15:48:17.667Z,42.53
2022-09-24T15:50:46.674Z,44.92
2022-09-24T15:53:21.002Z,85.80
2022-09-24T15:55:50.204Z,73.18
2022-09-24T15:58:19.399Z,39.22
2022-09-24T16:00:46.630Z,30.67
2022-09-24T16:03:23.309Z,14.25
2022-09-24T16:05:49.923Z,10.88
2022-09-24T16:08:16.909Z,11.85
2022-09-24T16:10:45.024Z,9.93
2022-09-24T16:13:12.825Z,7.63
2022-09-24T16:15:40.030Z,6.47
2022-09-24T16:18:09.169Z,6.30
2022-09-24T16:20:39.403Z,4.93
2022-09-24T16:23:13.958Z,5.18
2022-09-24T16:25:53.042Z,4.90
2022-09-24T16:28:19.616Z,4.70
2022-09-24T16:30:46.279Z,4.68
2022-09-24T16:33:13.318Z,4.53
2022-09-24T16:35:39.895Z,4.78
2022-09-24T16:38:07.096Z,4.57
2022-09-24T16:40:33.844Z,4.20
2022-09-24T16:43:00.559Z,4.00
2022-09-24T16:45:27.209Z,4.35
2022-09-24T16:47:53.889Z,4.07
2022-09-24T16:50:23.360Z,5.07
2022-09-24T16:52:52.303Z,7.45
2022-09-24T16:55:18.888Z,7.40
2022-09-24T16:57:45.521Z,6.32
2022-09-24T17:00:12.835Z,6.22
2022-09-24T17:02:39.523Z,10.00
2022-09-24T17:05:06.838Z,12.80
2022-09-24T17:07:33.494Z,9.15
2022-09-24T17:10:18.359Z,9.98
2022-09-24T17:12:48.134Z,7.57
2022-09-24T17:15:16.300Z,6.32
2022-09-24T17:17:49.570Z,5.18
2022-09-24T17:20:17.461Z,4.45
2022-09-24T17:22:44.067Z,4.60
2022-09-24T17:25:10.962Z,5.10
2022-09-24T17:27:37.620Z,4.82
2022-09-24T17:30:06.056Z,4.70
2022-09-24T17:32:32.719Z,4.40
2022-09-24T17:34:59.293Z,5.10
2022-09-24T17:37:27.296Z,5.03
2022-09-24T17:39:53.893Z,5.40
2022-09-24T17:42:20.532Z,5.68
2022-09-24T17:44:47.141Z,5.25
2022-09-24T17:47:13.754Z,5.18
2022-09-24T17:49:40.346Z,5.38
2022-09-24T17:52:06.960Z,5.10
2022-09-24T17:54:33.756Z,5.40
2022-09-24T17:57:01.905Z,5.75
2022-09-24T17:59:28.839Z,5.50
2022-09-24T18:01:55.678Z,5.70
2022-09-24T18:04:22.485Z,5.82
2022-09-24T18:06:50.109Z,6.07
2022-09-24T18:09:18.234Z,6.30
2022-09-24T18:11:47.998Z,6.35
2022-09-24T18:14:17.450Z,6.00
2022-09-24T18:16:45.004Z,8.77
2022-09-24T18:19:13.307Z,8.18
2022-09-24T18:21:40.001Z,7.60
2022-09-24T18:24:07.079Z,6.63
2022-09-24T18:26:39.178Z,6.53
2022-09-24T18:29:11.179Z,6.53
2022-09-24T18:31:38.423Z,6.43
2022-09-24T18:34:07.331Z,6.60
2022-09-24T18:36:36.946Z,6.15
2022-09-24T18:39:05.651Z,5.90
2022-09-24T18:41:32.809Z,6.22
2022-09-24T18:43:59.714Z,6.40
2022-09-24T18:46:28.910Z,5.78
2022-09-24T18:48:57.318Z,6.05
2022-09-24T18:51:30.099Z,5.90
2022-09-24T18:53:59.680Z,5.75
2022-09-24T18:56:26.753Z,5.85
2022-09-24T18:59:09.381Z,6.30
2022-09-24T19:01:40.289Z,5.63
2022-09-24T19:04:11.120Z,6.75
2022-09-24T19:06:41.088Z,6.68
2022-09-24T19:09:08.501Z,6.22
2022-09-24T19:11:35.984Z,6.80
2022-09-24T19:16:56.227Z,7.57
2022-09-24T19:19:26.932Z,6.00
2022-09-24T19:21:53.590Z,6.20
2022-09-24T19:24:20.306Z,6.50
2022-09-24T19:26:47.049Z,6.70
2022-09-24T19:29:13.780Z,6.35
2022-09-24T19:31:43.164Z,5.78
2022-09-24T19:34:12.541Z,7.13
2022-09-24T19:36:43.802Z,7.43
2022-09-24T19:39:16.819Z,7.05
2022-09-24T19:41:43.739Z,8.15
2022-09-24T19:44:11.702Z,6.68
2022-09-24T19:46:39.077Z,6.65
2022-09-24T19:49:06.201Z,6.75
2022-09-24T19:51:33.657Z,6.70
2022-09-24T19:54:06.907Z,6.32
2022-09-24T19:56:34.530Z,7.05
2022-09-24T19:59:01.781Z,7.93
2022-09-24T20:01:31.058Z,7.45
2022-09-24T20:04:00.261Z,7.28
2022-09-24T20:06:31.256Z,6.47
2022-09-24T20:08:59.317Z,6.53
2022-09-24T20:11:26.472Z,5.50
2022-09-24T20:13:55.514Z,6.20
2022-09-24T20:16:26.225Z,6.07
2022-09-24T20:18:57.513Z,6.20
2022-09-24T20:21:31.300Z,5.72
2022-09-24T20:23:58.524Z,6.80
2022-09-24T20:26:44.775Z,7.80
2022-09-24T20:29:13.067Z,7.13
2022-09-24T20:31:51.642Z,7.00
2022-09-24T20:34:19.873Z,6.88
2022-09-24T20:36:46.763Z,7.30
2022-09-24T20:39:13.510Z,6.60
2022-09-24T20:41:42.665Z,6.38
2022-09-24T20:44:09.704Z,6.32
2022-09-24T20:46:36.402Z,5.68
2022-09-24T20:49:03.417Z,6.65
2022-09-24T20:51:33.407Z,6.57
2022-09-24T20:54:00.812Z,5.45
2022-09-24T20:56:30.367Z,6.70
2022-09-24T20:58:57.332Z,6.35
2022-09-24T21:01:24.731Z,6.05
2022-09-24T21:03:52.800Z,6.10
2022-09-24T21:06:22.863Z,5.40
2022-09-24T21:08:50.388Z,5.70
2022-09-24T21:11:26.500Z,5.53
2022-09-24T21:13:56.070Z,5.53
2022-09-24T21:16:28.938Z,6.20
2022-09-24T21:18:55.712Z,6.15
2022-09-24T21:21:26.192Z,6.30
2022-09-24T21:23:54.517Z,5.72
2022-09-24T21:26:23.964Z,5.22
2022-09-24T21:28:52.778Z,5.07
2022-09-24T21:31:23.208Z,5.55
2022-09-24T21:33:54.426Z,5.70
2022-09-24T21:36:28.630Z,6.07
2022-09-24T21:41:32.100Z,5.55
2022-09-24T21:43:59.322Z,4.90
2022-09-24T21:46:27.699Z,4.60
2022-09-24T21:48:55.507Z,4.80
2022-09-24T21:51:22.876Z,4.88
2022-09-24T21:53:51.113Z,4.63
2022-09-24T21:56:19.037Z,5.47
2022-09-24T21:58:50.000Z,4.22
2022-09-24T22:01:28.260Z,4.60
2022-09-24T22:03:56.562Z,5.00
2022-09-24T22:06:28.469Z,4.40
2022-09-24T22:08:57.769Z,4.60
2022-09-24T22:11:26.297Z,5.20
2022-09-24T22:13:54.112Z,5.47
2022-09-24T22:16:21.618Z,4.60
2022-09-24T22:18:48.327Z,5.00
2022-09-24T22:21:15.741Z,4.75
2022-09-24T22:23:42.466Z,4.53
2022-09-24T22:26:10.229Z,4.88
2022-09-24T22:28:37.943Z,4.80
2022-09-24T22:31:08.074Z,5.05
2022-09-24T22:33:53.881Z,5.45
2022-09-24T22:36:20.762Z,4.88
2022-09-24T22:38:50.169Z,5.05
2022-09-24T22:41:16.745Z,4.68
2022-09-24T22:43:43.362Z,5.35
2022-09-24T22:46:12.052Z,4.97
2022-09-24T22:48:40.017Z,5.00
2022-09-24T22:51:07.847Z,4.85
2022-09-24T22:53:39.294Z,5.50
2022-09-24T22:56:26.401Z,4.88
2022-09-24T22:58:58.556Z,4.55
2022-09-24T23:01:31.393Z,4.55
2022-09-24T23:03:59.441Z,4.68
2022-09-24T23:06:26.837Z,4.82
2022-09-24T23:08:54.826Z,5.00
2022-09-24T23:11:30.283Z,4.30
2022-09-24T23:14:11.130Z,4.45
2022-09-24T23:16:38.719Z,5.00
2022-09-24T23:19:12.250Z,4.70
2022-09-24T23:21:38.916Z,4.80
2022-09-24T23:24:08.428Z,4.28
2022-09-24T23:26:35.195Z,5.00
2022-09-24T23:29:01.870Z,5.03
2022-09-24T23:31:31.264Z,4.97
2022-09-24T23:33:59.020Z,4.57
2022-09-24T23:36:27.052Z,4.75
2022-09-24T23:38:53.992Z,4.75
2022-09-24T23:41:21.537Z,5.20
2022-09-24T23:43:48.432Z,5.43
2022-09-24T23:46:15.913Z,6.07
2022-09-24T23:48:42.704Z,5.70
2022-09-24T23:51:09.997Z,5.72
2022-09-24T23:53:37.254Z,6.22
2022-09-24T23:56:05.637Z,5.55
2022-09-24T23:58:32.501Z,5.60
